Flight NumberLAS1208 Date30.07.2020
Departure AirportKDEN Arrival AirportKLAS
Departure Time22.27Arrival Time0.04
Pilot In CommandJason Ballard Block Time1.60 Hours
Pilot Rating100 % AircraftHA-LOB [ 737-700C ]


Distance546.00 Nm. Passengers0
Fuel Used3,627 Kg. Cargo354 Kg
Expense Details Income Details
Fuel Cost4,014 v$Ticket Sales0 v$
Pilot Salary897 v$ Cargo income516.00 v$
Crew Salary0 v$ Bonus7,483 v$
Gross Profit44,002 v$ ( 44,002 v$ )

Client Versionv2.3.3 Max Simrate1
Flight Critique Pilot CommentsPMDG B737, Visual 26L, KLAS 292256Z 26009G18KT 10SM CLR 43/M07 A2983.

[ Back ]
FSA VA Integration Pack
Copyright © 2010 FSAirlines.net. Version : 0.1.1